sensor_id;sensor_type;location;lat;lon;timestamp;pressure;altitude;pressure_sealevel;temperature;humidity
18678;BME280;9469;51.114;13.914;2023-04-09T00:02:45;99728.16;;;1.63;100.00
18678;BME280;9469;51.114;13.914;2023-04-09T00:07:52;99726.59;;;1.55;100.00
18678;BME280;9469;51.114;13.914;2023-04-09T00:12:57;99718.91;;;1.96;100.00
18678;BME280;9469;51.114;13.914;2023-04-09T00:18:06;99730.91;;;1.86;100.00
18678;BME280;9469;51.114;13.914;2023-04-09T00:23:11;99736.28;;;2.27;100.00
18678;BME280;9469;51.114;13.914;2023-04-09T00:28:18;99710.72;;;1.68;100.00
18678;BME280;9469;51.114;13.914;2023-04-09T00:33:27;99720.19;;;2.24;100.00
18678;BME280;9469;51.114;13.914;2023-04-09T00:38:34;99713.41;;;2.46;100.00
18678;BME280;9469;51.114;13.914;2023-04-09T00:43:42;99709.88;;;2.22;100.00
18678;BME280;9469;51.114;13.914;2023-04-09T00:48:50;99725.53;;;1.99;100.00
18678;BME280;9469;51.114;13.914;2023-04-09T00:53:56;99725.47;;;1.87;100.00
18678;BME280;9469;51.114;13.914;2023-04-09T00:59:02;99718.97;;;2.08;100.00
18678;BME280;9469;51.114;13.914;2023-04-09T01:04:12;99727.13;;;2.48;100.00
18678;BME280;9469;51.114;13.914;2023-04-09T01:09:25;99721.34;;;2.28;100.00
18678;BME280;9469;51.114;13.914;2023-04-09T01:14:38;99726.38;;;1.75;100.00
18678;BME280;9469;51.114;13.914;2023-04-09T01:19:59;99724.72;;;1.98;100.00
18678;BME280;9469;51.114;13.914;2023-04-09T01:25:13;99731.47;;;1.88;100.00
18678;BME280;9469;51.114;13.914;2023-04-09T01:30:26;99735.50;;;1.90;100.00
18678;BME280;9469;51.114;13.914;2023-04-09T01:35:32;99742.06;;;1.99;100.00
18678;BME280;9469;51.114;13.914;2023-04-09T01:40:38;99737.69;;;1.93;100.00
18678;BME280;9469;51.114;13.914;2023-04-09T01:45:46;99720.19;;;2.05;100.00
18678;BME280;9469;51.114;13.914;2023-04-09T01:50:52;99705.47;;;2.04;100.00
18678;BME280;9469;51.114;13.914;2023-04-09T01:55:58;99718.84;;;2.33;100.00
18678;BME280;9469;51.114;13.914;2023-04-09T02:01:13;99729.34;;;2.33;100.00
18678;BME280;9469;51.114;13.914;2023-04-09T02:06:33;99736.63;;;2.49;100.00
18678;BME280;9469;51.114;13.914;2023-04-09T02:11:42;99753.13;;;2.19;100.00
18678;BME280;9469;51.114;13.914;2023-04-09T02:16:52;99735.06;;;1.93;100.00
18678;BME280;9469;51.114;13.914;2023-04-09T02:21:58;99737.69;;;1.75;100.00
18678;BME280;9469;51.114;13.914;2023-04-09T02:27:06;99742.13;;;1.93;100.00
18678;BME280;9469;51.114;13.914;2023-04-09T02:32:15;99741.13;;;2.12;100.00
18678;BME280;9469;51.114;13.914;2023-04-09T02:37:20;99743.28;;;1.79;100.00
18678;BME280;9469;51.114;13.914;2023-04-09T02:42:26;99742.78;;;1.88;100.00
18678;BME280;9469;51.114;13.914;2023-04-09T02:47:35;99749.06;;;1.87;100.00
18678;BME280;9469;51.114;13.914;2023-04-09T02:52:40;99751.44;;;1.71;100.00
18678;BME280;9469;51.114;13.914;2023-04-09T02:57:46;99749.13;;;1.63;100.00
18678;BME280;9469;51.114;13.914;2023-04-09T03:02:54;99733.53;;;1.86;100.00
18678;BME280;9469;51.114;13.914;2023-04-09T03:08:00;99732.16;;;2.49;100.00
18678;BME280;9469;51.114;13.914;2023-04-09T03:13:05;99714.22;;;1.98;100.00
18678;BME280;9469;51.114;13.914;2023-04-09T03:18:15;99730.91;;;2.04;100.00
18678;BME280;9469;51.114;13.914;2023-04-09T03:23:21;99739.34;;;2.06;100.00
18678;BME280;9469;51.114;13.914;2023-04-09T03:28:26;99733.66;;;2.57;100.00
18678;BME280;9469;51.114;13.914;2023-04-09T03:33:35;99727.88;;;2.37;100.00
18678;BME280;9469;51.114;13.914;2023-04-09T03:38:43;99726.09;;;2.19;100.00
18678;BME280;9469;51.114;13.914;2023-04-09T03:44:16;99734.31;;;2.23;100.00
18678;BME280;9469;51.114;13.914;2023-04-09T03:49:50;99733.47;;;2.40;100.00
18678;BME280;9469;51.114;13.914;2023-04-09T03:55:04;99738.69;;;2.58;100.00
18678;BME280;9469;51.114;13.914;2023-04-09T04:00:13;99736.44;;;2.62;100.00
18678;BME280;9469;51.114;13.914;2023-04-09T04:05:27;99748.13;;;2.48;100.00
18678;BME280;9469;51.114;13.914;2023-04-09T04:10:37;99746.16;;;2.43;100.00
18678;BME280;9469;51.114;13.914;2023-04-09T04:15:42;99747.44;;;2.23;100.00
18678;BME280;9469;51.114;13.914;2023-04-09T04:20:57;99735.09;;;2.41;100.00
18678;BME280;9469;51.114;13.914;2023-04-09T04:26:06;99736.00;;;2.47;100.00
18678;BME280;9469;51.114;13.914;2023-04-09T04:31:12;99727.47;;;2.51;100.00
18678;BME280;9469;51.114;13.914;2023-04-09T04:36:21;99748.28;;;2.53;100.00
18678;BME280;9469;51.114;13.914;2023-04-09T04:41:28;99749.72;;;2.78;100.00
18678;BME280;9469;51.114;13.914;2023-04-09T04:46:43;99753.19;;;2.90;100.00
18678;BME280;9469;51.114;13.914;2023-04-09T04:51:53;99754.63;;;3.74;100.00
18678;BME280;9469;51.114;13.914;2023-04-09T04:56:58;99751.19;;;3.85;100.00
18678;BME280;9469;51.114;13.914;2023-04-09T05:02:13;99753.63;;;4.26;100.00
18678;BME280;9469;51.114;13.914;2023-04-09T05:07:42;99752.19;;;5.75;97.74
18678;BME280;9469;51.114;13.914;2023-04-09T05:12:48;99750.34;;;7.89;87.20
18678;BME280;9469;51.114;13.914;2023-04-09T05:18:07;99762.00;;;7.51;88.63
18678;BME280;9469;51.114;13.914;2023-04-09T05:23:17;99747.25;;;8.74;81.46
18678;BME280;9469;51.114;13.914;2023-04-09T05:28:23;99753.84;;;8.56;82.58
18678;BME280;9469;51.114;13.914;2023-04-09T05:33:39;99760.97;;;8.51;80.66
18678;BME280;9469;51.114;13.914;2023-04-09T05:38:54;99761.09;;;9.42;77.27
18678;BME280;9469;51.114;13.914;2023-04-09T05:43:59;99745.44;;;10.39;75.16
18678;BME280;9469;51.114;13.914;2023-04-09T05:49:05;99739.06;;;11.51;68.07
18678;BME280;9469;51.114;13.914;2023-04-09T05:54:14;99745.66;;;13.28;65.24
18678;BME280;9469;51.114;13.914;2023-04-09T05:59:19;99740.94;;;13.52;63.66
18678;BME280;9469;51.114;13.914;2023-04-09T06:04:25;99741.59;;;14.58;62.33
18678;BME280;9469;51.114;13.914;2023-04-09T06:09:33;99734.34;;;14.94;61.57
18678;BME280;9469;51.114;13.914;2023-04-09T06:14:39;99737.44;;;15.32;61.25
18678;BME280;9469;51.114;13.914;2023-04-09T06:19:45;99733.56;;;16.00;60.84
18678;BME280;9469;51.114;13.914;2023-04-09T06:24:54;99738.75;;;15.96;60.03
18678;BME280;9469;51.114;13.914;2023-04-09T06:29:59;99731.34;;;16.58;58.18
18678;BME280;9469;51.114;13.914;2023-04-09T06:35:05;99742.44;;;16.82;57.73
18678;BME280;9469;51.114;13.914;2023-04-09T06:40:15;99740.06;;;16.98;57.41
18678;BME280;9469;51.114;13.914;2023-04-09T06:45:23;99735.28;;;17.29;57.07
18678;BME280;9469;51.114;13.914;2023-04-09T06:50:29;99736.03;;;17.64;55.80
18678;BME280;9469;51.114;13.914;2023-04-09T06:55:37;99742.31;;;17.76;55.40
18678;BME280;9469;51.114;13.914;2023-04-09T07:00:45;99757.50;;;18.19;55.88
18678;BME280;9469;51.114;13.914;2023-04-09T07:05:50;99764.59;;;17.05;56.60
18678;BME280;9469;51.114;13.914;2023-04-09T07:11:00;99768.53;;;16.99;57.63
18678;BME280;9469;51.114;13.914;2023-04-09T07:16:05;99785.56;;;13.71;62.76
18678;BME280;9469;51.114;13.914;2023-04-09T07:21:10;99770.75;;;14.05;63.15
18678;BME280;9469;51.114;13.914;2023-04-09T07:26:18;99780.84;;;12.13;69.17
18678;BME280;9469;51.114;13.914;2023-04-09T07:31:24;99786.88;;;12.00;70.51
18678;BME280;9469;51.114;13.914;2023-04-09T07:36:29;99786.59;;;11.06;73.84
18678;BME280;9469;51.114;13.914;2023-04-09T07:41:40;99773.16;;;12.31;70.75
18678;BME280;9469;51.114;13.914;2023-04-09T07:46:45;99770.59;;;12.86;67.84
18678;BME280;9469;51.114;13.914;2023-04-09T07:51:51;99759.75;;;12.78;69.06
18678;BME280;9469;51.114;13.914;2023-04-09T07:56:59;99766.94;;;13.65;67.91
18678;BME280;9469;51.114;13.914;2023-04-09T08:02:07;99768.66;;;12.07;74.26
18678;BME280;9469;51.114;13.914;2023-04-09T08:07:18;99775.56;;;12.08;71.81
18678;BME280;9469;51.114;13.914;2023-04-09T08:12:31;99759.69;;;14.75;66.33
18678;BME280;9469;51.114;13.914;2023-04-09T08:17:37;99772.16;;;14.93;63.14
18678;BME280;9469;51.114;13.914;2023-04-09T08:22:49;99777.31;;;14.89;65.21
18678;BME280;9469;51.114;13.914;2023-04-09T08:27:58;99764.69;;;16.09;62.12
18678;BME280;9469;51.114;13.914;2023-04-09T08:33:07;99759.19;;;16.71;60.90
18678;BME280;9469;51.114;13.914;2023-04-09T08:38:17;99764.72;;;17.26;58.56
18678;BME280;9469;51.114;13.914;2023-04-09T08:43:26;99779.91;;;15.17;63.60
18678;BME280;9469;51.114;13.914;2023-04-09T08:49:01;99780.50;;;16.59;61.60
18678;BME280;9469;51.114;13.914;2023-04-09T08:54:07;99772.13;;;16.12;61.83
18678;BME280;9469;51.114;13.914;2023-04-09T08:59:17;99772.84;;;15.43;65.15
18678;BME280;9469;51.114;13.914;2023-04-09T09:04:25;99771.38;;;15.37;63.37
18678;BME280;9469;51.114;13.914;2023-04-09T09:09:53;99768.41;;;14.80;65.79
18678;BME280;9469;51.114;13.914;2023-04-09T09:15:04;99769.34;;;15.87;63.22
18678;BME280;9469;51.114;13.914;2023-04-09T09:20:20;99770.81;;;16.01;63.91
18678;BME280;9469;51.114;13.914;2023-04-09T09:25:38;99777.91;;;15.97;61.83
18678;BME280;9469;51.114;13.914;2023-04-09T09:30:47;99769.31;;;15.34;65.36
18678;BME280;9469;51.114;13.914;2023-04-09T09:35:54;99763.38;;;14.79;65.45
18678;BME280;9469;51.114;13.914;2023-04-09T09:41:15;99762.44;;;15.19;64.18
18678;BME280;9469;51.114;13.914;2023-04-09T09:46:33;99748.16;;;14.38;66.65
18678;BME280;9469;51.114;13.914;2023-04-09T09:51:40;99763.16;;;15.11;64.11
18678;BME280;9469;51.114;13.914;2023-04-09T09:56:51;99770.91;;;15.13;65.36
18678;BME280;9469;51.114;13.914;2023-04-09T10:02:19;99755.81;;;14.81;66.16
18678;BME280;9469;51.114;13.914;2023-04-09T10:07:29;99760.72;;;14.65;66.76
18678;BME280;9469;51.114;13.914;2023-04-09T10:12:34;99769.44;;;14.03;69.83
18678;BME280;9469;51.114;13.914;2023-04-09T10:17:50;99759.38;;;12.66;71.16
18678;BME280;9469;51.114;13.914;2023-04-09T10:23:02;99754.69;;;12.95;73.82
18678;BME280;9469;51.114;13.914;2023-04-09T10:28:14;99746.06;;;13.68;69.84
18678;BME280;9469;51.114;13.914;2023-04-09T10:33:26;99729.91;;;13.27;69.63
18678;BME280;9469;51.114;13.914;2023-04-09T10:38:36;99730.63;;;14.32;68.45
18678;BME280;9469;51.114;13.914;2023-04-09T10:43:42;99735.88;;;13.37;71.42
18678;BME280;9469;51.114;13.914;2023-04-09T10:49:10;99736.34;;;14.26;69.37
18678;BME280;9469;51.114;13.914;2023-04-09T10:54:41;99734.03;;;13.19;72.19
18678;BME280;9469;51.114;13.914;2023-04-09T10:59:58;99720.28;;;13.58;70.17
18678;BME280;9469;51.114;13.914;2023-04-09T11:05:24;99737.16;;;13.72;70.04
18678;BME280;9469;51.114;13.914;2023-04-09T11:10:31;99722.44;;;13.42;71.20
18678;BME280;9469;51.114;13.914;2023-04-09T11:15:39;99736.75;;;13.79;69.75
18678;BME280;9469;51.114;13.914;2023-04-09T11:20:49;99726.53;;;13.03;70.71
18678;BME280;9469;51.114;13.914;2023-04-09T11:25:55;99728.75;;;13.33;69.33
18678;BME280;9469;51.114;13.914;2023-04-09T11:31:04;99737.38;;;13.11;70.33
18678;BME280;9469;51.114;13.914;2023-04-09T11:36:13;99727.56;;;13.39;69.62
18678;BME280;9469;51.114;13.914;2023-04-09T11:41:32;99720.00;;;13.73;66.53
18678;BME280;9469;51.114;13.914;2023-04-09T11:46:41;99724.66;;;13.68;66.35
18678;BME280;9469;51.114;13.914;2023-04-09T11:51:56;99715.66;;;14.31;65.10
18678;BME280;9469;51.114;13.914;2023-04-09T11:57:04;99716.56;;;14.76;63.71
18678;BME280;9469;51.114;13.914;2023-04-09T12:02:11;99715.16;;;14.29;64.71
18678;BME280;9469;51.114;13.914;2023-04-09T12:07:23;99708.28;;;15.31;63.31
18678;BME280;9469;51.114;13.914;2023-04-09T12:12:42;99710.94;;;15.08;65.26
18678;BME280;9469;51.114;13.914;2023-04-09T12:17:50;99715.28;;;15.18;64.76
18678;BME280;9469;51.114;13.914;2023-04-09T12:23:02;99709.00;;;15.00;63.31
18678;BME280;9469;51.114;13.914;2023-04-09T12:28:11;99736.75;;;13.92;63.49
18678;BME280;9469;51.114;13.914;2023-04-09T12:33:20;99712.22;;;14.89;62.21
18678;BME280;9469;51.114;13.914;2023-04-09T12:38:37;99712.06;;;15.07;61.60
18678;BME280;9469;51.114;13.914;2023-04-09T12:43:48;99719.91;;;13.92;64.31
18678;BME280;9469;51.114;13.914;2023-04-09T12:48:57;99703.66;;;14.78;63.31
18678;BME280;9469;51.114;13.914;2023-04-09T12:54:11;99696.84;;;14.94;61.60
18678;BME280;9469;51.114;13.914;2023-04-09T12:59:33;99697.19;;;14.44;63.25
18678;BME280;9469;51.114;13.914;2023-04-09T13:04:42;99692.69;;;15.33;59.97
18678;BME280;9469;51.114;13.914;2023-04-09T13:09:58;99672.00;;;16.03;59.45
18678;BME280;9469;51.114;13.914;2023-04-09T13:15:13;99678.34;;;16.24;59.12
18678;BME280;9469;51.114;13.914;2023-04-09T13:20:26;99669.16;;;15.60;60.05
18678;BME280;9469;51.114;13.914;2023-04-09T13:25:41;99669.91;;;14.99;60.76
18678;BME280;9469;51.114;13.914;2023-04-09T13:30:49;99690.81;;;14.89;58.13
18678;BME280;9469;51.114;13.914;2023-04-09T13:36:03;99671.38;;;15.58;59.61
18678;BME280;9469;51.114;13.914;2023-04-09T13:41:14;99671.25;;;15.72;58.82
18678;BME280;9469;51.114;13.914;2023-04-09T13:46:20;99670.41;;;15.01;61.03
18678;BME280;9469;51.114;13.914;2023-04-09T13:51:26;99670.16;;;15.12;61.73
18678;BME280;9469;51.114;13.914;2023-04-09T13:56:38;99664.75;;;15.03;62.94
18678;BME280;9469;51.114;13.914;2023-04-09T14:01:43;99652.75;;;15.00;61.80
18678;BME280;9469;51.114;13.914;2023-04-09T14:06:48;99659.84;;;15.27;60.40
18678;BME280;9469;51.114;13.914;2023-04-09T14:11:58;99650.50;;;14.22;62.94
18678;BME280;9469;51.114;13.914;2023-04-09T14:17:03;99653.06;;;15.30;62.33
18678;BME280;9469;51.114;13.914;2023-04-09T14:22:09;99648.81;;;14.76;61.41
18678;BME280;9469;51.114;13.914;2023-04-09T14:27:19;99659.50;;;14.98;60.09
18678;BME280;9469;51.114;13.914;2023-04-09T14:32:24;99653.97;;;14.94;59.58
18678;BME280;9469;51.114;13.914;2023-04-09T14:37:30;99649.94;;;15.05;59.32
18678;BME280;9469;51.114;13.914;2023-04-09T14:42:38;99647.63;;;14.46;61.07
18678;BME280;9469;51.114;13.914;2023-04-09T14:47:43;99647.06;;;14.22;60.92
18678;BME280;9469;51.114;13.914;2023-04-09T14:52:48;99656.53;;;13.92;59.57
18678;BME280;9469;51.114;13.914;2023-04-09T14:57:57;99648.25;;;14.65;59.79
18678;BME280;9469;51.114;13.914;2023-04-09T15:03:03;99639.03;;;15.24;59.62
18678;BME280;9469;51.114;13.914;2023-04-09T15:08:08;99629.34;;;15.45;58.28
18678;BME280;9469;51.114;13.914;2023-04-09T15:13:17;99619.66;;;15.58;59.74
18678;BME280;9469;51.114;13.914;2023-04-09T15:18:22;99624.38;;;14.55;61.18
18678;BME280;9469;51.114;13.914;2023-04-09T15:23:27;99621.75;;;14.64;61.53
18678;BME280;9469;51.114;13.914;2023-04-09T15:28:35;99626.66;;;14.12;62.51
18678;BME280;9469;51.114;13.914;2023-04-09T15:33:41;99631.88;;;14.89;61.80
18678;BME280;9469;51.114;13.914;2023-04-09T15:38:48;99617.13;;;15.00;62.36
18678;BME280;9469;51.114;13.914;2023-04-09T15:43:56;99626.31;;;14.63;62.09
18678;BME280;9469;51.114;13.914;2023-04-09T15:49:02;99617.63;;;14.80;61.78
18678;BME280;9469;51.114;13.914;2023-04-09T15:54:08;99622.81;;;14.05;62.11
18678;BME280;9469;51.114;13.914;2023-04-09T15:59:16;99624.19;;;14.02;60.84
18678;BME280;9469;51.114;13.914;2023-04-09T16:04:22;99628.81;;;13.75;62.07
18678;BME280;9469;51.114;13.914;2023-04-09T16:09:29;99631.97;;;13.49;62.48
18678;BME280;9469;51.114;13.914;2023-04-09T16:14:37;99622.44;;;13.71;63.34
18678;BME280;9469;51.114;13.914;2023-04-09T16:19:43;99624.44;;;13.79;64.06
18678;BME280;9469;51.114;13.914;2023-04-09T16:24:48;99628.19;;;13.37;64.92
18678;BME280;9469;51.114;13.914;2023-04-09T16:29:56;99634.00;;;13.25;64.77
18678;BME280;9469;51.114;13.914;2023-04-09T16:35:02;99623.31;;;13.25;65.50
18678;BME280;9469;51.114;13.914;2023-04-09T16:40:08;99626.91;;;13.61;65.40
18678;BME280;9469;51.114;13.914;2023-04-09T16:45:18;99625.91;;;13.30;65.65
18678;BME280;9469;51.114;13.914;2023-04-09T16:50:23;99623.94;;;13.49;65.79
18678;BME280;9469;51.114;13.914;2023-04-09T16:55:28;99623.63;;;13.37;66.09
18678;BME280;9469;51.114;13.914;2023-04-09T17:00:36;99617.72;;;13.54;65.91
18678;BME280;9469;51.114;13.914;2023-04-09T17:05:43;99621.63;;;13.16;67.53
18678;BME280;9469;51.114;13.914;2023-04-09T17:10:52;99622.38;;;12.70;68.06
18678;BME280;9469;51.114;13.914;2023-04-09T17:16:07;99626.28;;;12.91;67.05
18678;BME280;9469;51.114;13.914;2023-04-09T17:21:12;99642.78;;;13.12;66.64
18678;BME280;9469;51.114;13.914;2023-04-09T17:26:18;99647.63;;;13.56;65.24
18678;BME280;9469;51.114;13.914;2023-04-09T17:31:28;99651.03;;;12.97;67.29
18678;BME280;9469;51.114;13.914;2023-04-09T17:36:34;99646.56;;;13.11;67.33
18678;BME280;9469;51.114;13.914;2023-04-09T17:41:39;99649.88;;;13.03;68.40
18678;BME280;9469;51.114;13.914;2023-04-09T17:46:49;99654.28;;;13.13;68.48
18678;BME280;9469;51.114;13.914;2023-04-09T17:51:55;99647.44;;;12.88;68.82
18678;BME280;9469;51.114;13.914;2023-04-09T17:57:01;99651.03;;;12.97;69.05
18678;BME280;9469;51.114;13.914;2023-04-09T18:02:10;99648.91;;;12.80;68.74
18678;BME280;9469;51.114;13.914;2023-04-09T18:07:16;99649.00;;;12.38;68.88
18678;BME280;9469;51.114;13.914;2023-04-09T18:12:22;99660.91;;;12.27;70.00
18678;BME280;9469;51.114;13.914;2023-04-09T18:17:30;99660.31;;;12.11;70.76
18678;BME280;9469;51.114;13.914;2023-04-09T18:22:35;99664.75;;;11.97;72.27
18678;BME280;9469;51.114;13.914;2023-04-09T18:27:40;99668.19;;;11.79;73.83
18678;BME280;9469;51.114;13.914;2023-04-09T18:32:48;99665.13;;;11.91;74.46
18678;BME280;9469;51.114;13.914;2023-04-09T18:37:53;99676.94;;;11.85;75.26
18678;BME280;9469;51.114;13.914;2023-04-09T18:42:58;99682.00;;;12.05;75.12
18678;BME280;9469;51.114;13.914;2023-04-09T18:48:06;99679.19;;;12.15;75.00
18678;BME280;9469;51.114;13.914;2023-04-09T18:53:12;99683.22;;;12.12;74.83
18678;BME280;9469;51.114;13.914;2023-04-09T18:58:18;99683.31;;;12.07;75.36
18678;BME280;9469;51.114;13.914;2023-04-09T19:03:26;99685.97;;;11.60;76.82
18678;BME280;9469;51.114;13.914;2023-04-09T19:08:32;99689.56;;;11.74;74.76
18678;BME280;9469;51.114;13.914;2023-04-09T19:13:39;99680.75;;;12.21;75.88
18678;BME280;9469;51.114;13.914;2023-04-09T19:18:49;99669.44;;;11.87;78.94
18678;BME280;9469;51.114;13.914;2023-04-09T19:23:55;99671.25;;;11.91;77.90
18678;BME280;9469;51.114;13.914;2023-04-09T19:29:01;99661.25;;;11.78;79.78
18678;BME280;9469;51.114;13.914;2023-04-09T19:34:09;99673.47;;;11.84;80.57
18678;BME280;9469;51.114;13.914;2023-04-09T19:39:14;99677.03;;;11.17;82.92
18678;BME280;9469;51.114;13.914;2023-04-09T19:44:19;99668.56;;;10.81;85.88
18678;BME280;9469;51.114;13.914;2023-04-09T19:49:27;99673.19;;;10.66;89.48
18678;BME280;9469;51.114;13.914;2023-04-09T19:54:33;99684.47;;;10.53;89.00
18678;BME280;9469;51.114;13.914;2023-04-09T19:59:39;99677.31;;;10.87;86.98
18678;BME280;9469;51.114;13.914;2023-04-09T20:04:47;99664.25;;;10.52;88.45
18678;BME280;9469;51.114;13.914;2023-04-09T20:09:54;99681.06;;;10.42;89.13
18678;BME280;9469;51.114;13.914;2023-04-09T20:15:01;99684.03;;;10.74;88.36
18678;BME280;9469;51.114;13.914;2023-04-09T20:20:12;99685.09;;;10.35;89.79
18678;BME280;9469;51.114;13.914;2023-04-09T20:25:19;99684.47;;;9.94;92.55
18678;BME280;9469;51.114;13.914;2023-04-09T20:30:25;99685.47;;;10.08;92.34
18678;BME280;9469;51.114;13.914;2023-04-09T20:35:37;99687.94;;;9.89;93.34
18678;BME280;9469;51.114;13.914;2023-04-09T20:40:43;99689.88;;;9.64;95.28
18678;BME280;9469;51.114;13.914;2023-04-09T20:45:48;99686.44;;;9.48;95.68
18678;BME280;9469;51.114;13.914;2023-04-09T20:50:56;99691.47;;;9.55;95.38
18678;BME280;9469;51.114;13.914;2023-04-09T20:56:02;99685.13;;;9.46;96.88
18678;BME280;9469;51.114;13.914;2023-04-09T21:01:08;99687.28;;;9.28;97.76
18678;BME280;9469;51.114;13.914;2023-04-09T21:06:17;99690.72;;;9.34;97.34
18678;BME280;9469;51.114;13.914;2023-04-09T21:11:23;99684.06;;;9.47;95.93
18678;BME280;9469;51.114;13.914;2023-04-09T21:16:32;99699.72;;;9.53;95.05
18678;BME280;9469;51.114;13.914;2023-04-09T21:21:44;99688.81;;;9.60;94.08
18678;BME280;9469;51.114;13.914;2023-04-09T21:26:49;99697.34;;;9.52;94.39
18678;BME280;9469;51.114;13.914;2023-04-09T21:31:54;99687.81;;;9.35;95.59
18678;BME280;9469;51.114;13.914;2023-04-09T21:37:04;99698.97;;;9.17;96.53
18678;BME280;9469;51.114;13.914;2023-04-09T21:42:09;99696.31;;;9.32;97.68
18678;BME280;9469;51.114;13.914;2023-04-09T21:47:14;99709.50;;;9.78;95.64
18678;BME280;9469;51.114;13.914;2023-04-09T21:52:23;99714.09;;;9.47;96.81
18678;BME280;9469;51.114;13.914;2023-04-09T21:57:29;99703.47;;;9.37;97.40
18678;BME280;9469;51.114;13.914;2023-04-09T22:02:34;99694.69;;;9.47;97.19
18678;BME280;9469;51.114;13.914;2023-04-09T22:07:43;99689.94;;;9.23;97.52
18678;BME280;9469;51.114;13.914;2023-04-09T22:12:49;99691.53;;;9.09;97.72
18678;BME280;9469;51.114;13.914;2023-04-09T22:17:54;99694.72;;;9.16;95.99
18678;BME280;9469;51.114;13.914;2023-04-09T22:23:02;99694.75;;;8.86;98.65
18678;BME280;9469;51.114;13.914;2023-04-09T22:28:09;99681.44;;;8.91;98.01
18678;BME280;9469;51.114;13.914;2023-04-09T22:33:15;99687.78;;;8.45;100.00
18678;BME280;9469;51.114;13.914;2023-04-09T22:38:23;99691.81;;;8.98;98.45
18678;BME280;9469;51.114;13.914;2023-04-09T22:43:28;99689.91;;;8.53;100.00
18678;BME280;9469;51.114;13.914;2023-04-09T22:48:33;99699.84;;;8.11;100.00
18678;BME280;9469;51.114;13.914;2023-04-09T22:53:59;99704.84;;;8.02;100.00
18678;BME280;9469;51.114;13.914;2023-04-09T22:59:04;99705.53;;;7.82;100.00
18678;BME280;9469;51.114;13.914;2023-04-09T23:04:09;99709.44;;;7.70;100.00
18678;BME280;9469;51.114;13.914;2023-04-09T23:09:18;99699.50;;;7.45;100.00
18678;BME280;9469;51.114;13.914;2023-04-09T23:14:23;99697.94;;;7.49;100.00
18678;BME280;9469;51.114;13.914;2023-04-09T23:19:28;99698.72;;;7.96;100.00
18678;BME280;9469;51.114;13.914;2023-04-09T23:24:36;99694.28;;;7.55;100.00
18678;BME280;9469;51.114;13.914;2023-04-09T23:29:42;99693.34;;;7.35;100.00
18678;BME280;9469;51.114;13.914;2023-04-09T23:34:47;99690.22;;;7.06;100.00
18678;BME280;9469;51.114;13.914;2023-04-09T23:39:55;99688.59;;;7.00;100.00
18678;BME280;9469;51.114;13.914;2023-04-09T23:45:07;99684.72;;;6.81;100.00
18678;BME280;9469;51.114;13.914;2023-04-09T23:50:12;99686.09;;;6.57;100.00
18678;BME280;9469;51.114;13.914;2023-04-09T23:55:21;99683.56;;;6.18;100.00
